createdAt,value
2022-07-29T00:01:21.186Z,1.48
2022-07-29T00:06:25.372Z,1.33
2022-07-29T00:11:27.121Z,1.40
2022-07-29T00:16:30.331Z,1.35
2022-07-29T00:21:34.644Z,1.45
2022-07-29T00:26:41.624Z,1.67
2022-07-29T00:31:44.341Z,1.50
2022-07-29T00:36:46.121Z,1.30
2022-07-29T00:41:50.627Z,1.27
2022-07-29T00:46:54.757Z,1.65
2022-07-29T00:51:59.551Z,1.70
2022-07-29T00:57:01.509Z,1.23
2022-07-29T01:02:06.080Z,1.40
2022-07-29T01:07:11.497Z,1.67
2022-07-29T01:12:30.628Z,1.65
2022-07-29T01:17:52.782Z,1.50
2022-07-29T01:23:10.131Z,1.70
2022-07-29T01:28:21.001Z,1.50
2022-07-29T01:33:45.218Z,1.33
2022-07-29T01:38:55.729Z,1.50
2022-07-29T01:44:03.866Z,1.60
2022-07-29T01:49:17.203Z,1.75
2022-07-29T01:54:43.914Z,1.77
2022-07-29T01:59:49.754Z,1.60
2022-07-29T02:04:52.181Z,1.60
2022-07-29T02:09:54.263Z,1.83
2022-07-29T02:14:58.056Z,1.80
2022-07-29T02:20:05.309Z,1.60
2022-07-29T02:25:14.053Z,1.40
2022-07-29T02:30:21.733Z,1.30
2022-07-29T02:35:28.178Z,1.60
2022-07-29T02:40:43.855Z,1.60
2022-07-29T02:45:46.244Z,1.65
2022-07-29T02:51:06.551Z,1.60
2022-07-29T02:56:16.823Z,2.00
2022-07-29T03:01:33.881Z,1.67
2022-07-29T03:06:40.822Z,1.73
2022-07-29T03:11:49.988Z,1.63
2022-07-29T03:16:54.918Z,1.52
2022-07-29T03:21:58.513Z,1.50
2022-07-29T03:27:00.560Z,1.60
2022-07-29T03:32:08.620Z,1.90
2022-07-29T03:37:10.652Z,2.00
2022-07-29T03:42:15.204Z,1.75
2022-07-29T03:47:39.323Z,1.95
2022-07-29T03:52:49.105Z,1.80
2022-07-29T03:57:53.791Z,1.80
2022-07-29T04:03:00.827Z,1.80
2022-07-29T04:08:03.612Z,1.58
2022-07-29T04:13:05.949Z,1.92
2022-07-29T04:18:08.656Z,1.70
2022-07-29T04:23:15.347Z,1.58
2022-07-29T04:28:19.231Z,1.70
2022-07-29T04:33:23.282Z,2.13
2022-07-29T04:38:30.326Z,2.03
2022-07-29T04:43:37.034Z,1.30
2022-07-29T04:48:41.173Z,1.92
2022-07-29T04:53:43.189Z,2.35
2022-07-29T04:58:54.957Z,2.05
2022-07-29T05:04:00.280Z,2.70
2022-07-29T05:09:06.094Z,2.30
2022-07-29T05:14:10.584Z,2.17
2022-07-29T05:19:14.620Z,2.38
2022-07-29T05:24:19.668Z,2.17
2022-07-29T05:29:42.763Z,2.05
2022-07-29T05:34:50.889Z,2.58
2022-07-29T05:39:57.199Z,2.17
2022-07-29T05:45:02.288Z,2.42
2022-07-29T05:50:05.385Z,2.20
2022-07-29T05:55:09.497Z,2.53
2022-07-29T06:00:11.687Z,2.45
2022-07-29T06:05:18.784Z,2.28
2022-07-29T06:10:26.986Z,2.40
2022-07-29T06:15:32.115Z,2.20
2022-07-29T06:20:36.256Z,2.75
2022-07-29T06:25:44.791Z,2.25
2022-07-29T06:30:46.630Z,3.03
2022-07-29T06:35:53.224Z,2.60
2022-07-29T06:41:05.013Z,2.50
2022-07-29T06:46:13.478Z,2.35
2022-07-29T06:51:15.667Z,2.58
2022-07-29T06:56:22.573Z,2.35
2022-07-29T07:01:26.034Z,2.67
2022-07-29T07:06:30.062Z,2.53
2022-07-29T07:11:34.969Z,2.28
2022-07-29T07:16:38.973Z,2.25
2022-07-29T07:21:41.459Z,2.50
2022-07-29T07:26:45.762Z,1.88
2022-07-29T07:31:50.402Z,2.60
2022-07-29T07:36:54.603Z,2.53
2022-07-29T07:41:56.513Z,2.47
2022-07-29T07:47:03.880Z,2.38
2022-07-29T07:52:18.774Z,2.60
2022-07-29T07:57:23.598Z,2.75
2022-07-29T08:02:26.283Z,2.03
2022-07-29T08:07:28.063Z,2.40
2022-07-29T08:12:34.659Z,2.28
2022-07-29T08:17:36.476Z,2.25
2022-07-29T08:22:47.329Z,2.85
2022-07-29T08:27:49.470Z,2.03
2022-07-29T08:32:54.990Z,2.42
2022-07-29T08:37:57.984Z,2.38
2022-07-29T08:43:06.509Z,2.30
2022-07-29T08:48:10.144Z,2.25
2022-07-29T08:53:20.634Z,2.38
2022-07-29T08:58:24.603Z,2.67
2022-07-29T09:03:31.569Z,2.63
2022-07-29T09:08:34.856Z,2.85
2022-07-29T09:13:37.063Z,2.70
2022-07-29T09:18:49.551Z,2.45
2022-07-29T09:24:10.713Z,2.47
2022-07-29T09:29:18.806Z,2.40
2022-07-29T09:34:32.645Z,2.42
2022-07-29T09:39:45.174Z,3.33
2022-07-29T09:44:49.825Z,2.55
2022-07-29T09:49:59.003Z,2.45
2022-07-29T09:55:17.895Z,2.28
2022-07-29T10:00:21.134Z,2.92
2022-07-29T10:05:25.092Z,2.40
2022-07-29T10:10:34.158Z,2.70
2022-07-29T10:15:42.517Z,2.58
2022-07-29T10:20:48.091Z,2.63
2022-07-29T10:25:50.159Z,2.22
2022-07-29T10:30:52.910Z,2.78
2022-07-29T10:36:09.768Z,2.50
2022-07-29T10:41:31.996Z,2.60
2022-07-29T10:46:41.271Z,2.45
2022-07-29T10:51:59.126Z,2.83
2022-07-29T10:57:53.776Z,2.83
2022-07-29T11:02:52.948Z,2.35
2022-07-29T11:08:20.136Z,2.70
2022-07-29T11:13:52.311Z,2.58
2022-07-29T11:19:13.233Z,2.58
2022-07-29T11:24:28.740Z,2.53
2022-07-29T11:29:32.371Z,2.60
2022-07-29T11:34:42.479Z,1.75
2022-07-29T11:40:01.535Z,2.28
2022-07-29T11:45:43.797Z,2.10
2022-07-29T11:50:44.606Z,2.08
2022-07-29T11:55:59.236Z,2.10
2022-07-29T12:01:04.119Z,2.40
2022-07-29T12:06:18.610Z,1.92
2022-07-29T12:11:26.082Z,1.92
2022-07-29T12:16:38.027Z,2.10
2022-07-29T12:21:56.990Z,1.83
2022-07-29T12:27:02.792Z,1.90
2022-07-29T12:32:14.640Z,1.95
2022-07-29T12:37:21.224Z,2.70
2022-07-29T12:43:03.129Z,1.83
2022-07-29T12:48:09.629Z,1.73
2022-07-29T12:53:13.520Z,1.75
2022-07-29T12:58:27.163Z,1.73
2022-07-29T13:03:45.198Z,2.10
2022-07-29T13:09:17.914Z,1.95
2022-07-29T13:14:32.775Z,1.52
2022-07-29T13:19:44.699Z,1.98
2022-07-29T13:24:55.824Z,1.73
2022-07-29T13:29:58.979Z,2.00
2022-07-29T13:35:07.140Z,2.00
2022-07-29T13:40:11.857Z,1.77
2022-07-29T13:45:17.005Z,2.17
2022-07-29T13:50:18.743Z,2.55
2022-07-29T13:55:20.645Z,2.10
2022-07-29T14:00:24.680Z,2.38
2022-07-29T14:05:26.694Z,2.30
2022-07-29T14:10:29.378Z,1.80
2022-07-29T14:15:31.162Z,1.50
2022-07-29T14:20:35.232Z,1.80
2022-07-29T14:25:47.522Z,1.70
2022-07-29T14:30:53.554Z,1.77
2022-07-29T14:36:01.078Z,1.90
2022-07-29T14:41:05.820Z,1.55
2022-07-29T14:46:08.947Z,1.90
2022-07-29T14:51:13.068Z,1.95
2022-07-29T14:56:36.642Z,2.00
2022-07-29T15:01:39.405Z,1.70
2022-07-29T15:06:41.285Z,2.00
2022-07-29T15:11:43.106Z,1.40
2022-07-29T15:16:48.661Z,1.80
2022-07-29T15:21:59.175Z,2.00
2022-07-29T15:27:06.501Z,1.60
2022-07-29T15:32:08.842Z,1.50
2022-07-29T15:37:12.449Z,1.67
2022-07-29T15:42:19.402Z,1.85
2022-07-29T15:47:21.234Z,1.88
2022-07-29T15:52:25.223Z,1.60
2022-07-29T15:57:31.230Z,2.30
2022-07-29T16:02:32.970Z,1.80
2022-07-29T16:07:37.759Z,1.52
2022-07-29T16:12:41.947Z,1.65
2022-07-29T16:17:43.784Z,1.60
2022-07-29T16:22:48.253Z,1.30
2022-07-29T16:27:50.023Z,1.50
2022-07-29T16:32:52.898Z,1.50
2022-07-29T16:38:01.643Z,2.00
2022-07-29T16:43:11.942Z,2.10
2022-07-29T16:48:18.887Z,1.80
2022-07-29T16:53:20.654Z,1.80
2022-07-29T16:58:22.837Z,1.80
2022-07-29T17:03:26.876Z,1.90
2022-07-29T17:08:35.508Z,1.63
2022-07-29T17:13:39.667Z,1.85
2022-07-29T17:18:47.905Z,1.77
2022-07-29T17:23:50.525Z,1.90
2022-07-29T17:28:52.346Z,2.15
2022-07-29T17:33:59.875Z,2.20
2022-07-29T17:39:05.793Z,2.03
2022-07-29T17:44:09.489Z,1.70
2022-07-29T17:49:13.954Z,1.80
2022-07-29T17:54:17.963Z,1.83
2022-07-29T17:59:22.818Z,1.58
2022-07-29T18:04:35.057Z,1.77
2022-07-29T18:09:39.812Z,1.85
2022-07-29T18:14:56.054Z,2.00
2022-07-29T18:19:57.815Z,1.70
2022-07-29T18:25:01.482Z,1.80
2022-07-29T18:30:06.062Z,1.70
2022-07-29T18:35:08.340Z,1.67
2022-07-29T18:40:12.306Z,2.45
2022-07-29T18:45:19.347Z,2.00
2022-07-29T18:50:25.713Z,1.85
2022-07-29T18:55:30.589Z,1.90
2022-07-29T19:00:35.422Z,1.40
2022-07-29T19:05:37.302Z,1.70
2022-07-29T19:10:42.357Z,1.85
2022-07-29T19:15:45.589Z,1.70
2022-07-29T19:20:47.556Z,1.58
2022-07-29T19:25:53.600Z,1.77
2022-07-29T19:30:58.806Z,1.70
2022-07-29T19:36:02.210Z,1.90
2022-07-29T19:41:07.095Z,1.80
2022-07-29T19:46:08.890Z,1.90
2022-07-29T19:51:13.019Z,2.20
2022-07-29T19:56:14.805Z,1.95
2022-07-29T20:01:19.970Z,2.30
2022-07-29T20:06:23.078Z,2.15
2022-07-29T20:11:25.047Z,1.98
2022-07-29T20:16:29.017Z,2.10
2022-07-29T20:21:31.475Z,2.13
2022-07-29T20:26:33.269Z,2.45
2022-07-29T20:31:35.169Z,2.00
2022-07-29T20:36:36.953Z,2.30
2022-07-29T20:41:42.418Z,2.25
2022-07-29T20:46:48.896Z,2.08
2022-07-29T20:51:50.661Z,2.00
2022-07-29T20:56:53.186Z,2.10
2022-07-29T21:01:55.648Z,2.60
2022-07-29T21:06:58.114Z,2.05
2022-07-29T21:12:02.596Z,2.20
2022-07-29T21:17:07.918Z,2.25
2022-07-29T21:22:12.624Z,2.60
2022-07-29T21:27:32.894Z,2.10
2022-07-29T21:32:34.735Z,2.45
2022-07-29T21:37:42.101Z,3.03
2022-07-29T21:42:49.113Z,2.80
2022-07-29T21:47:53.827Z,2.45
2022-07-29T21:52:58.665Z,2.90
2022-07-29T21:58:02.214Z,3.08
2022-07-29T22:03:06.470Z,3.08
2022-07-29T22:08:13.515Z,2.40
2022-07-29T22:13:15.492Z,2.22
2022-07-29T22:18:20.988Z,2.83
2022-07-29T22:23:22.950Z,2.92
2022-07-29T22:28:27.677Z,2.50
2022-07-29T22:33:29.455Z,2.97
2022-07-29T22:38:31.257Z,2.88
2022-07-29T22:43:35.610Z,2.83
2022-07-29T22:48:38.112Z,3.03
2022-07-29T22:53:42.393Z,2.67
2022-07-29T22:58:44.493Z,2.63
2022-07-29T23:03:51.154Z,2.78
2022-07-29T23:09:00.065Z,2.88
2022-07-29T23:14:01.992Z,3.13
2022-07-29T23:19:06.811Z,2.80
2022-07-29T23:24:08.582Z,3.00
2022-07-29T23:29:15.098Z,3.10
2022-07-29T23:34:19.201Z,3.13
2022-07-29T23:39:20.954Z,2.90
2022-07-29T23:44:27.413Z,2.85
2022-07-29T23:49:31.816Z,2.70
2022-07-29T23:54:35.884Z,2.70
2022-07-29T23:59:40.643Z,2.78
